Disclaimer

Please do not use the information listed here in-flight or in-navigation, as they are not provided to us by the airports but are provided by volunteers, so they might be outdated.

Search


Regions


Airport information page

No radio frequency information is available.

Airport informations:
Latitude: 12° 34' 20.25" N
Longitude: 012° 13' 13.20" W
Elevation: 584 feet - 178 meters
Operating hours: Remarks
Operating agency: Civil government, landing fees and diplomatic clearance may be required
Timezone: UTC 0
Fuel: N/A

Runway information:
11/29 - 5906 x 148 feet< - >1800 x 45 meters

Recent METARs:
GOTK 160800Z 08006KT CAVOK 20/04 Q1015
GOTK 160900Z 04008KT CAVOK 24/03 Q1016
GOTK 160900Z 04008KT CAVOK 24/03 Q1016

Airport on the map: